createdAt,value
2018-06-19T00:01:31.160Z,51.30
2018-06-19T00:03:59.231Z,51.30
2018-06-19T00:06:27.301Z,51.20
2018-06-19T00:08:55.366Z,51.20
2018-06-19T00:11:23.478Z,51.10
2018-06-19T00:13:51.546Z,51.00
2018-06-19T00:16:19.646Z,51.00
2018-06-19T00:18:50.922Z,51.00
2018-06-19T00:21:25.105Z,51.00
2018-06-19T00:23:53.166Z,50.90
2018-06-19T00:26:21.215Z,50.90
2018-06-19T00:28:49.294Z,50.80
2018-06-19T00:31:17.362Z,50.80
2018-06-19T00:33:45.462Z,50.80
2018-06-19T00:36:13.526Z,50.80
2018-06-19T00:38:41.594Z,50.70
2018-06-19T00:41:09.652Z,51.30
2018-06-19T00:43:37.711Z,50.70
2018-06-19T00:46:06.850Z,50.70
2018-06-19T00:48:34.910Z,50.60
2018-06-19T00:51:02.966Z,50.60
2018-06-19T00:53:31.043Z,50.60
2018-06-19T00:56:10.675Z,50.60
2018-06-19T00:58:38.775Z,50.40
2018-06-19T01:01:07.075Z,50.60
2018-06-19T01:03:35.142Z,50.60
2018-06-19T01:06:03.215Z,50.50
2018-06-19T01:08:31.276Z,50.50
2018-06-19T01:10:59.346Z,50.50
2018-06-19T01:13:27.412Z,50.50
2018-06-19T01:15:55.474Z,50.50
2018-06-19T01:18:23.670Z,50.50
2018-06-19T01:20:51.771Z,50.40
2018-06-19T01:23:19.855Z,50.40
2018-06-19T01:25:47.954Z,50.40
2018-06-19T01:28:16.016Z,50.40
2018-06-19T01:30:44.062Z,50.30
2018-06-19T01:33:12.126Z,50.30
2018-06-19T01:35:40.186Z,50.30
2018-06-19T01:38:08.394Z,50.30
2018-06-19T01:40:36.638Z,50.30
2018-06-19T01:43:04.974Z,51.10
2018-06-19T01:45:33.054Z,50.30
2018-06-19T01:48:01.142Z,50.30
2018-06-19T01:50:29.453Z,50.30
2018-06-19T01:52:57.862Z,50.20
2018-06-19T01:55:25.918Z,50.20
2018-06-19T01:57:53.975Z,50.10
2018-06-19T02:00:22.058Z,50.10
2018-06-19T02:02:50.153Z,50.10
2018-06-19T02:05:18.210Z,50.10
2018-06-19T02:07:46.305Z,50.00
2018-06-19T02:10:14.351Z,50.00
2018-06-19T02:12:42.418Z,50.00
2018-06-19T02:15:10.619Z,50.00
2018-06-19T02:17:38.688Z,50.00
2018-06-19T02:20:07.027Z,50.00
2018-06-19T02:22:35.113Z,49.90
2018-06-19T02:25:03.619Z,49.90
2018-06-19T02:27:31.838Z,49.90
2018-06-19T02:29:59.903Z,49.90
2018-06-19T02:32:27.957Z,49.90
2018-06-19T02:34:56.011Z,49.90
2018-06-19T02:37:24.149Z,49.90
2018-06-19T02:39:52.651Z,49.80
2018-06-19T02:42:20.809Z,49.80
2018-06-19T02:44:48.887Z,49.80
2018-06-19T02:47:16.958Z,49.90
2018-06-19T02:49:45.028Z,49.90
2018-06-19T02:52:13.108Z,49.90
2018-06-19T02:54:41.188Z,49.80
2018-06-19T02:57:09.559Z,49.90
2018-06-19T02:59:37.618Z,49.80
2018-06-19T03:02:05.843Z,49.80
2018-06-19T03:04:33.935Z,49.80
2018-06-19T03:09:30.474Z,49.70
2018-06-19T03:11:58.531Z,50.10
2018-06-19T03:14:26.591Z,50.30
2018-06-19T03:16:54.655Z,49.70
2018-06-19T03:19:22.755Z,49.70
2018-06-19T03:21:50.819Z,49.80
2018-06-19T03:24:18.899Z,49.80
2018-06-19T03:26:47.285Z,50.00
2018-06-19T03:29:15.350Z,50.70
2018-06-19T03:31:43.415Z,50.10
2018-06-19T03:36:40.011Z,50.20
2018-06-19T03:39:10.027Z,50.40
2018-06-19T03:41:38.344Z,50.40
2018-06-19T03:44:06.631Z,50.40
2018-06-19T03:46:34.694Z,50.40
2018-06-19T03:49:03.322Z,50.40
2018-06-19T03:51:31.398Z,50.40
2018-06-19T03:53:59.522Z,50.40
2018-06-19T03:56:27.587Z,50.50
2018-06-19T03:58:55.886Z,50.50
2018-06-19T04:03:52.043Z,50.50
2018-06-19T04:06:20.127Z,50.50
2018-06-19T04:08:48.184Z,50.50
2018-06-19T04:11:16.270Z,50.50
2018-06-19T04:13:44.343Z,50.50
2018-06-19T04:16:12.431Z,50.50
2018-06-19T04:18:40.491Z,50.50
2018-06-19T04:21:08.583Z,50.50
2018-06-19T04:23:36.720Z,50.40
2018-06-19T04:26:04.943Z,50.50
2018-06-19T04:28:33.019Z,50.50
2018-06-19T04:31:01.099Z,50.40
2018-06-19T04:33:29.219Z,50.50
2018-06-19T04:35:57.247Z,50.50
2018-06-19T04:38:25.322Z,50.50
2018-06-19T04:43:21.510Z,50.50
2018-06-19T04:45:49.591Z,50.40
2018-06-19T04:48:17.658Z,50.40
2018-06-19T04:50:45.731Z,50.30
2018-06-19T04:53:13.818Z,50.30
2018-06-19T04:55:41.903Z,50.30
2018-06-19T04:58:09.975Z,50.30
2018-06-19T05:00:38.051Z,50.90
2018-06-19T05:03:06.207Z,50.20
2018-06-19T05:05:34.278Z,50.20
2018-06-19T05:08:02.546Z,50.20
2018-06-19T05:10:30.882Z,50.50
2018-06-19T05:12:58.946Z,50.30
2018-06-19T05:15:27.024Z,50.40
2018-06-19T05:17:55.088Z,50.50
2018-06-19T05:20:23.183Z,50.50
2018-06-19T05:22:51.415Z,51.10
2018-06-19T05:25:19.507Z,51.50
2018-06-19T05:27:47.565Z,51.30
2018-06-19T05:30:15.663Z,51.10
2018-06-19T05:32:43.694Z,51.20
2018-06-19T05:35:11.763Z,52.40
2018-06-19T05:37:39.823Z,51.90
2018-06-19T05:40:07.903Z,51.30
2018-06-19T05:42:36.006Z,51.00
2018-06-19T05:45:04.115Z,51.00
2018-06-19T05:47:32.194Z,51.10
2018-06-19T05:50:00.320Z,51.40
2018-06-19T05:52:28.630Z,51.40
2018-06-19T05:54:56.736Z,51.30
2018-06-19T05:59:53.164Z,51.20
2018-06-19T06:02:21.280Z,51.20
2018-06-19T06:04:49.334Z,51.80
2018-06-19T06:07:19.007Z,51.20
2018-06-19T06:09:47.322Z,51.20
2018-06-19T06:12:15.500Z,51.10
2018-06-19T06:14:43.730Z,51.20
2018-06-19T06:17:11.798Z,51.20
2018-06-19T06:19:39.855Z,51.10
2018-06-19T06:22:07.951Z,51.10
2018-06-19T06:24:35.987Z,51.10
2018-06-19T06:27:04.442Z,51.10
2018-06-19T06:29:32.538Z,51.10
2018-06-19T06:32:00.675Z,51.20
2018-06-19T06:34:28.742Z,51.10
2018-06-19T06:36:56.932Z,51.10
2018-06-19T06:39:24.995Z,51.10
2018-06-19T06:41:53.069Z,51.10
2018-06-19T06:44:21.158Z,51.10
2018-06-19T06:46:49.239Z,51.00
2018-06-19T06:49:17.362Z,51.00
2018-06-19T06:51:45.430Z,50.90
2018-06-19T06:54:13.527Z,50.90
2018-06-19T06:56:41.599Z,50.90
2018-06-19T06:59:09.756Z,50.90
2018-06-19T07:01:37.834Z,50.90
2018-06-19T07:04:06.158Z,50.80
2018-06-19T07:06:34.234Z,50.90
2018-06-19T07:09:02.308Z,50.80
2018-06-19T07:11:30.627Z,50.80
2018-06-19T07:13:58.686Z,50.90
2018-06-19T07:16:26.766Z,50.90
2018-06-19T07:18:54.897Z,50.90
2018-06-19T07:21:22.899Z,50.90
2018-06-19T07:23:51.106Z,51.00
2018-06-19T07:26:19.422Z,50.90
2018-06-19T07:28:47.491Z,50.90
2018-06-19T07:33:43.454Z,50.90
2018-06-19T07:36:11.561Z,50.80
2018-06-19T07:38:39.629Z,50.90
2018-06-19T07:41:07.694Z,50.90
2018-06-19T07:43:35.774Z,50.90
2018-06-19T07:46:03.846Z,50.80
2018-06-19T07:48:31.935Z,50.80
2018-06-19T07:51:00.004Z,50.80
2018-06-19T07:53:28.095Z,50.80
2018-06-19T07:55:56.170Z,50.80
2018-06-19T07:58:24.252Z,50.80
2018-06-19T08:00:52.323Z,50.80
2018-06-19T08:05:48.264Z,50.90
2018-06-19T08:08:16.335Z,50.90
2018-06-19T08:10:44.403Z,50.90
2018-06-19T08:13:12.478Z,50.90
2018-06-19T08:15:40.558Z,50.80
2018-06-19T08:18:08.667Z,50.80
2018-06-19T08:20:36.750Z,50.80
2018-06-19T08:23:04.830Z,50.80
2018-06-19T08:28:00.782Z,50.40
2018-06-19T08:30:28.842Z,50.80
2018-06-19T08:32:56.902Z,50.80
2018-06-19T08:35:24.960Z,50.80
2018-06-19T08:37:53.070Z,50.80
2018-06-19T08:40:21.081Z,50.80
2018-06-19T08:42:49.535Z,50.80
2018-06-19T08:45:17.607Z,50.80
2018-06-19T08:47:45.676Z,50.80
2018-06-19T08:50:14.002Z,50.90
2018-06-19T08:52:42.071Z,50.90
2018-06-19T08:55:10.167Z,50.90
2018-06-19T08:57:38.214Z,50.90
2018-06-19T09:00:06.266Z,50.90
2018-06-19T09:02:34.329Z,50.90
2018-06-19T09:05:02.393Z,51.10
2018-06-19T09:07:30.476Z,51.10
2018-06-19T09:09:58.526Z,51.10
2018-06-19T09:12:26.586Z,51.20
2018-06-19T09:14:54.647Z,51.30
2018-06-19T09:17:22.715Z,51.40
2018-06-19T09:19:50.771Z,51.40
2018-06-19T09:22:18.831Z,51.70
2018-06-19T09:24:46.899Z,51.70
2018-06-19T09:27:14.983Z,51.80
2018-06-19T09:29:43.062Z,52.00
2018-06-19T09:32:11.125Z,52.00
2018-06-19T09:34:39.208Z,52.00
2018-06-19T09:37:07.271Z,52.10
2018-06-19T09:39:35.463Z,52.10
2018-06-19T09:42:03.526Z,52.10
2018-06-19T09:44:31.606Z,52.10
2018-06-19T09:46:59.725Z,52.10
2018-06-19T09:49:27.738Z,52.00
2018-06-19T09:51:55.811Z,52.10
2018-06-19T09:54:24.083Z,52.10
2018-06-19T09:56:52.146Z,52.00
2018-06-19T09:59:20.228Z,52.00
2018-06-19T10:01:48.303Z,52.10
2018-06-19T10:04:16.391Z,52.10
2018-06-19T10:06:44.463Z,52.10
2018-06-19T10:09:12.543Z,52.10
2018-06-19T10:11:40.607Z,52.10
2018-06-19T10:14:08.906Z,52.10
2018-06-19T10:16:37.265Z,52.10
2018-06-19T10:19:05.330Z,52.10
2018-06-19T10:21:34.478Z,52.10
2018-06-19T10:24:02.554Z,52.10
2018-06-19T10:26:30.640Z,52.10
2018-06-19T10:28:58.726Z,52.10
2018-06-19T10:31:26.885Z,52.10
2018-06-19T10:33:54.971Z,52.10
2018-06-19T10:36:23.026Z,52.00
2018-06-19T10:38:51.099Z,52.00
2018-06-19T10:41:19.158Z,52.00
2018-06-19T10:43:47.234Z,51.90
2018-06-19T10:46:15.300Z,51.90
2018-06-19T10:48:43.375Z,52.00
2018-06-19T10:51:11.443Z,52.00
2018-06-19T10:53:39.570Z,52.00
2018-06-19T10:56:07.639Z,51.90
2018-06-19T10:58:35.710Z,51.90
2018-06-19T11:01:03.797Z,51.80
2018-06-19T11:03:31.860Z,51.90
2018-06-19T11:05:59.930Z,51.90
2018-06-19T11:10:56.136Z,51.80
2018-06-19T11:13:24.197Z,51.80
2018-06-19T11:15:52.459Z,51.80
2018-06-19T11:18:20.542Z,51.80
2018-06-19T11:20:48.619Z,51.80
2018-06-19T11:23:16.771Z,51.80
2018-06-19T11:25:44.985Z,51.80
2018-06-19T11:28:13.061Z,51.70
2018-06-19T11:30:41.143Z,51.70
2018-06-19T11:33:09.215Z,51.70
2018-06-19T11:35:37.287Z,51.70
2018-06-19T11:40:33.215Z,51.60
2018-06-19T11:43:01.315Z,51.60
2018-06-19T11:45:29.384Z,52.30
2018-06-19T11:47:57.456Z,51.60
2018-06-19T11:50:25.531Z,51.60
2018-06-19T11:52:53.597Z,52.20
2018-06-19T11:55:21.834Z,51.60
2018-06-19T11:57:49.906Z,51.70
2018-06-19T12:00:17.991Z,51.60
2018-06-19T12:02:46.055Z,51.60
2018-06-19T12:05:14.126Z,51.60
2018-06-19T12:07:43.920Z,51.70
2018-06-19T12:10:12.003Z,52.00
2018-06-19T12:12:40.683Z,51.60
2018-06-19T12:15:09.051Z,51.60
2018-06-19T12:17:37.174Z,51.60
2018-06-19T12:20:05.712Z,51.60
2018-06-19T12:22:33.774Z,51.60
2018-06-19T12:25:01.850Z,51.60
2018-06-19T12:27:29.918Z,51.60
2018-06-19T12:29:57.998Z,51.60
2018-06-19T12:32:26.778Z,51.60
2018-06-19T12:34:55.058Z,51.60
2018-06-19T12:37:23.174Z,51.60
2018-06-19T12:39:51.195Z,51.60
2018-06-19T12:42:19.258Z,51.60
2018-06-19T12:44:47.395Z,51.60
2018-06-19T12:47:15.430Z,51.60
2018-06-19T12:51:57.010Z,51.50
2018-06-19T12:54:36.650Z,51.50
2018-06-19T12:57:04.719Z,51.50
2018-06-19T12:59:32.791Z,51.60
2018-06-19T13:02:00.871Z,51.60
2018-06-19T13:07:02.446Z,51.70
2018-06-19T13:09:30.519Z,51.60
2018-06-19T13:11:58.594Z,51.60
2018-06-19T13:14:33.542Z,51.50
2018-06-19T13:17:13.193Z,51.50
2018-06-19T13:19:52.723Z,51.60
2018-06-19T13:22:20.804Z,51.60
2018-06-19T13:24:48.866Z,51.60
2018-06-19T13:27:16.946Z,51.60
2018-06-19T13:29:59.907Z,51.50
2018-06-19T13:32:28.186Z,51.50
2018-06-19T13:34:56.246Z,51.60
2018-06-19T13:37:24.330Z,51.60
2018-06-19T13:41:05.193Z,51.50
2018-06-19T13:43:45.063Z,51.50
2018-06-19T13:46:13.328Z,51.50
2018-06-19T13:48:42.107Z,51.00
2018-06-19T13:51:10.771Z,51.50
2018-06-19T13:53:38.919Z,51.50
2018-06-19T13:57:39.913Z,51.50
2018-06-19T14:00:15.815Z,51.40
2018-06-19T14:02:43.907Z,51.40
2018-06-19T14:05:12.842Z,51.50
2018-06-19T14:07:58.008Z,51.50
2018-06-19T14:10:37.611Z,52.00
2018-06-19T14:13:05.690Z,51.40
2018-06-19T14:15:37.922Z,51.40
2018-06-19T14:18:06.299Z,51.40
2018-06-19T14:20:34.451Z,51.40
2018-06-19T14:23:02.503Z,52.10
2018-06-19T14:25:30.574Z,51.40
2018-06-19T14:27:58.644Z,52.00
2018-06-19T14:30:26.699Z,51.40
2018-06-19T14:32:54.798Z,51.40
2018-06-19T14:35:22.827Z,51.40
2018-06-19T14:37:50.898Z,51.40
2018-06-19T14:40:19.326Z,51.30
2018-06-19T14:42:47.402Z,51.30
2018-06-19T14:45:15.457Z,51.30
2018-06-19T14:47:43.923Z,51.20
2018-06-19T14:50:12.204Z,51.20
2018-06-19T14:52:40.273Z,51.20
2018-06-19T14:55:09.062Z,51.20
2018-06-19T14:57:37.323Z,51.30
2018-06-19T15:00:06.055Z,51.90
2018-06-19T15:02:34.110Z,51.20
2018-06-19T15:05:02.195Z,51.20
2018-06-19T15:07:35.683Z,51.20
2018-06-19T15:10:03.803Z,51.20
2018-06-19T15:12:31.807Z,51.20
2018-06-19T15:14:59.877Z,51.20
2018-06-19T15:17:27.946Z,51.20
2018-06-19T15:19:56.015Z,51.20
2018-06-19T15:22:24.074Z,51.20
2018-06-19T15:24:52.183Z,51.20
2018-06-19T15:27:20.246Z,51.20
2018-06-19T15:32:16.182Z,51.20
2018-06-19T15:34:44.262Z,51.20
2018-06-19T15:37:12.343Z,51.10
2018-06-19T15:39:40.457Z,51.20
2018-06-19T15:42:08.527Z,51.20
2018-06-19T15:44:36.609Z,51.20
2018-06-19T15:47:04.675Z,51.20
2018-06-19T15:49:32.751Z,51.10
2018-06-19T15:52:00.807Z,51.20
2018-06-19T15:54:29.139Z,51.80
2018-06-19T15:56:57.227Z,51.10
2018-06-19T15:59:25.316Z,51.10
2018-06-19T16:01:53.366Z,51.10
2018-06-19T16:04:21.451Z,51.10
2018-06-19T16:06:49.539Z,51.10
2018-06-19T16:09:17.907Z,51.00
2018-06-19T16:11:45.976Z,51.10
2018-06-19T16:14:14.442Z,51.10
2018-06-19T16:16:42.523Z,51.10
2018-06-19T16:19:10.598Z,51.10
2018-06-19T16:21:38.684Z,51.00
2018-06-19T16:24:06.755Z,51.00
2018-06-19T16:26:34.818Z,51.00
2018-06-19T16:29:02.862Z,51.00
2018-06-19T16:31:30.929Z,51.00
2018-06-19T16:33:58.978Z,51.00
2018-06-19T16:36:27.038Z,51.60
2018-06-19T16:38:55.206Z,51.00
2018-06-19T16:41:23.579Z,51.00
2018-06-19T16:43:51.643Z,51.00
2018-06-19T16:46:19.947Z,51.00
2018-06-19T16:48:48.002Z,51.00
2018-06-19T16:51:16.063Z,51.00
2018-06-19T16:53:44.248Z,51.00
2018-06-19T16:56:12.350Z,51.00
2018-06-19T16:58:40.414Z,51.00
2018-06-19T17:01:08.477Z,51.00
2018-06-19T17:03:36.538Z,51.00
2018-06-19T17:06:04.699Z,51.00
2018-06-19T17:08:32.758Z,51.00
2018-06-19T17:11:00.816Z,51.00
2018-06-19T17:13:28.886Z,51.00
2018-06-19T17:15:56.947Z,51.00
2018-06-19T17:18:25.025Z,51.00
2018-06-19T17:23:21.034Z,50.70
2018-06-19T17:25:49.098Z,51.00
2018-06-19T17:28:17.174Z,51.00
2018-06-19T17:30:45.232Z,51.00
2018-06-19T17:33:13.370Z,51.00
2018-06-19T17:35:41.456Z,51.00
2018-06-19T17:38:09.524Z,51.00
2018-06-19T17:40:37.607Z,51.00
2018-06-19T17:43:05.887Z,51.00
2018-06-19T17:45:33.957Z,51.00
2018-06-19T17:48:02.022Z,51.00
2018-06-19T17:50:30.099Z,51.40
2018-06-19T17:52:58.176Z,51.10
2018-06-19T17:55:26.278Z,51.20
2018-06-19T17:57:54.352Z,51.20
2018-06-19T18:00:23.173Z,51.20
2018-06-19T18:02:51.567Z,51.20
2018-06-19T18:05:19.935Z,51.40
2018-06-19T18:07:47.997Z,51.30
2018-06-19T18:10:16.078Z,51.30
2018-06-19T18:12:44.127Z,51.40
2018-06-19T18:15:12.403Z,51.40
2018-06-19T18:17:40.479Z,51.50
2018-06-19T18:20:08.562Z,51.50
2018-06-19T18:22:36.626Z,51.50
2018-06-19T18:25:04.769Z,51.60
2018-06-19T18:27:32.845Z,51.60
2018-06-19T18:30:00.942Z,51.60
2018-06-19T18:32:29.035Z,52.20
2018-06-19T18:34:57.114Z,51.50
2018-06-19T18:37:25.194Z,51.50
2018-06-19T18:39:53.279Z,51.50
2018-06-19T18:42:21.358Z,51.50
2018-06-19T18:44:49.425Z,51.80
2018-06-19T18:47:17.804Z,52.40
2018-06-19T18:49:46.123Z,51.60
2018-06-19T18:52:14.211Z,52.40
2018-06-19T18:54:42.387Z,51.70
2018-06-19T18:57:10.455Z,51.90
2018-06-19T18:59:38.912Z,51.90
2018-06-19T19:02:07.011Z,51.90
2018-06-19T19:04:35.088Z,51.90
2018-06-19T19:07:03.172Z,51.90
2018-06-19T19:09:31.317Z,52.60
2018-06-19T19:14:31.534Z,51.50
2018-06-19T19:17:05.109Z,51.70
2018-06-19T19:19:33.386Z,51.80
2018-06-19T19:22:01.478Z,51.80
2018-06-19T19:24:29.548Z,51.90
2018-06-19T19:27:03.176Z,51.90
2018-06-19T19:29:36.709Z,51.90
2018-06-19T19:32:04.799Z,52.00
2018-06-19T19:34:32.871Z,51.90
2018-06-19T19:37:06.359Z,51.90
2018-06-19T19:39:34.443Z,51.90
2018-06-19T19:42:02.538Z,51.70
2018-06-19T19:44:30.601Z,51.70
2018-06-19T19:47:04.275Z,51.90
2018-06-19T19:49:32.656Z,51.80
2018-06-19T19:52:00.731Z,51.80
2018-06-19T19:54:28.802Z,51.90
2018-06-19T19:57:02.426Z,51.80
2018-06-19T19:59:30.513Z,51.70
2018-06-19T20:01:58.582Z,51.70
2018-06-19T20:04:26.650Z,51.70
2018-06-19T20:06:54.707Z,51.60
2018-06-19T20:09:22.867Z,51.40
2018-06-19T20:11:50.974Z,51.10
2018-06-19T20:14:19.406Z,51.00
2018-06-19T20:16:47.474Z,51.10
2018-06-19T20:19:15.547Z,51.10
2018-06-19T20:21:43.598Z,51.00
2018-06-19T20:24:11.670Z,51.10
2018-06-19T20:26:40.558Z,51.20
2018-06-19T20:29:08.655Z,51.10
2018-06-19T20:31:36.693Z,51.10
2018-06-19T20:34:04.959Z,51.10
2018-06-19T20:36:33.030Z,51.00
2018-06-19T20:39:01.098Z,51.00
2018-06-19T20:41:29.164Z,51.00
2018-06-19T20:43:57.240Z,51.00
2018-06-19T20:46:25.360Z,50.90
2018-06-19T20:48:53.431Z,50.90
2018-06-19T20:51:21.495Z,50.80
2018-06-19T20:53:49.571Z,50.80
2018-06-19T20:56:17.627Z,50.80
2018-06-19T20:58:45.708Z,50.80
2018-06-19T21:01:13.775Z,50.70
2018-06-19T21:03:41.850Z,50.70
2018-06-19T21:06:09.914Z,50.70
2018-06-19T21:08:42.140Z,50.70
2018-06-19T21:11:11.946Z,50.70
2018-06-19T21:13:40.015Z,50.70
2018-06-19T21:16:08.703Z,50.70
2018-06-19T21:18:37.191Z,50.70
2018-06-19T21:21:05.286Z,50.60
2018-06-19T21:23:33.418Z,50.60
2018-06-19T21:26:01.596Z,50.60
2018-06-19T21:28:29.673Z,50.60
2018-06-19T21:30:57.743Z,50.60
2018-06-19T21:33:25.831Z,50.50
2018-06-19T21:38:21.848Z,50.50
2018-06-19T21:40:49.914Z,50.50
2018-06-19T21:43:17.974Z,50.50
2018-06-19T21:45:46.078Z,50.50
2018-06-19T21:48:14.187Z,50.50
2018-06-19T21:50:42.275Z,50.50
2018-06-19T21:53:10.562Z,50.40
2018-06-19T21:55:38.647Z,50.50
2018-06-19T21:58:06.703Z,50.50
2018-06-19T22:00:34.994Z,50.50
2018-06-19T22:03:03.152Z,50.40
2018-06-19T22:05:31.306Z,50.40
2018-06-19T22:07:59.366Z,50.40
2018-06-19T22:10:27.574Z,50.40
2018-06-19T22:12:55.646Z,50.40
2018-06-19T22:15:23.714Z,50.40
2018-06-19T22:17:51.784Z,50.30
2018-06-19T22:20:19.854Z,50.30
2018-06-19T22:22:47.971Z,50.40
2018-06-19T22:25:16.050Z,50.40
2018-06-19T22:27:44.145Z,50.30
2018-06-19T22:30:12.222Z,50.30
2018-06-19T22:32:40.599Z,50.20
2018-06-19T22:35:08.666Z,50.30
2018-06-19T22:37:36.736Z,50.20
2018-06-19T22:40:05.079Z,50.20
2018-06-19T22:42:33.160Z,50.20
2018-06-19T22:45:01.216Z,50.20
2018-06-19T22:47:29.336Z,50.10
2018-06-19T22:49:57.782Z,50.20
2018-06-19T22:52:25.851Z,50.20
2018-06-19T22:54:53.937Z,50.20
2018-06-19T22:57:21.998Z,50.20
2018-06-19T22:59:50.067Z,50.20
2018-06-19T23:02:18.135Z,50.20
2018-06-19T23:04:46.359Z,50.20
2018-06-19T23:07:14.527Z,50.10
2018-06-19T23:09:42.603Z,50.10
2018-06-19T23:12:10.659Z,50.10
2018-06-19T23:14:38.711Z,50.10
2018-06-19T23:17:06.759Z,50.10
2018-06-19T23:19:34.846Z,50.10
2018-06-19T23:22:02.911Z,50.10
2018-06-19T23:24:31.059Z,50.10
2018-06-19T23:26:59.126Z,50.10
2018-06-19T23:29:27.175Z,50.10
2018-06-19T23:34:23.560Z,50.70
2018-06-19T23:36:51.763Z,50.70
2018-06-19T23:39:19.839Z,50.10
2018-06-19T23:41:47.898Z,50.10
2018-06-19T23:44:15.962Z,50.10
2018-06-19T23:46:44.028Z,50.10
2018-06-19T23:49:12.088Z,50.10
2018-06-19T23:51:40.243Z,50.10
2018-06-19T23:54:08.288Z,50.10
2018-06-19T23:56:36.362Z,50.10
2018-06-19T23:59:04.555Z,50.10
